SVA826 OEJN-WIII
Flight info
| Callsign | SVA826 |
|---|---|
| Flight time | N/A |
| Altitude | 31000 |
| Route | EGREP T532 KODIS Y214 RAPMA DCT DEGNO DCT DAPOL L692 GISKA N569 UMILA L883 TAVKO/N0503F330 L883 REXOD N563 SADRI/N0497F350 N563 ISVUR A585 PLB G461 BIDAK |
| Aircraft | B77W/H-SDE1E2E3FGHIJ2J3J4J5M1RWXY/LB1D1 |
Departure
| Time | N/A |
|---|---|
| Airport | King Abdulaziz International Airport (OEJN) |
Arrival
| Time | 2026-05-04 19:14 |
|---|---|
| Airport | Soekarno-Hatta International Airport (WIII) |
| Time | Latitude | Longitude | Altitude | Speed | Heading |
|---|---|---|---|---|---|
| 2026-05-04 11:50 | 22.02515 | 54.11509 | 30857 ft | 526 kts | 103° |
| 2026-05-04 11:50 | 22.00933 | 54.19148 | 30843 ft | 526 kts | 103° |
| 2026-05-04 11:51 | 21.99338 | 54.26833 | 30839 ft | 526 kts | 103° |
| 2026-05-04 11:51 | 21.97738 | 54.34523 | 30838 ft | 526 kts | 103° |
| 2026-05-04 11:52 | 21.96135 | 54.42206 | 30850 ft | 526 kts | 103° |
| 2026-05-04 11:52 | 21.94526 | 54.49897 | 30836 ft | 526 kts | 103° |
| 2026-05-04 11:53 | 21.92914 | 54.57588 | 30844 ft | 526 kts | 103° |
| 2026-05-04 11:53 | 21.91298 | 54.65279 | 30843 ft | 527 kts | 103° |
| 2026-05-04 11:55 | 21.84796 | 54.96031 | 30846 ft | 527 kts | 103° |
| 2026-05-04 11:56 | 21.83157 | 55.03734 | 30832 ft | 528 kts | 103° |
| 2026-05-04 11:56 | 21.81517 | 55.11428 | 30841 ft | 528 kts | 103° |
| 2026-05-04 11:57 | 21.79872 | 55.19123 | 30846 ft | 527 kts | 103° |
| 2026-05-04 11:57 | 21.78225 | 55.26814 | 30833 ft | 527 kts | 103° |
| 2026-05-04 11:58 | 21.76584 | 55.34454 | 30835 ft | 527 kts | 103° |
| 2026-05-04 11:58 | 21.74928 | 55.42150 | 30854 ft | 527 kts | 103° |
| 2026-05-04 11:59 | 21.73271 | 55.49833 | 30850 ft | 527 kts | 103° |
| 2026-05-04 11:59 | 21.71932 | 55.56231 | 30851 ft | 528 kts | 101° |
| 2026-05-04 12:00 | 21.71190 | 55.64075 | 30861 ft | 527 kts | 93° |
| 2026-05-04 12:00 | 21.70822 | 55.71969 | 30857 ft | 528 kts | 93° |
| 2026-05-04 12:01 | 21.70375 | 55.79862 | 30865 ft | 529 kts | 94° |
| 2026-05-04 12:02 | 21.68731 | 56.07492 | 30861 ft | 530 kts | 94° |
| 2026-05-04 12:03 | 21.68256 | 56.15394 | 30870 ft | 530 kts | 94° |
| 2026-05-04 12:03 | 21.67777 | 56.23306 | 30861 ft | 530 kts | 94° |
| 2026-05-04 12:04 | 21.67292 | 56.31226 | 30852 ft | 530 kts | 94° |
| 2026-05-04 12:04 | 21.66805 | 56.39136 | 30853 ft | 530 kts | 94° |
| 2026-05-04 12:05 | 21.66314 | 56.47053 | 30857 ft | 530 kts | 94° |
| 2026-05-04 12:05 | 21.65819 | 56.54960 | 30849 ft | 530 kts | 94° |
| 2026-05-04 12:06 | 21.65320 | 56.62872 | 30857 ft | 531 kts | 94° |
| 2026-05-04 12:06 | 21.64817 | 56.70805 | 30858 ft | 531 kts | 94° |
| 2026-05-04 12:07 | 21.64311 | 56.78716 | 30849 ft | 531 kts | 94° |
| 2026-05-04 12:07 | 21.63800 | 56.86638 | 30857 ft | 531 kts | 94° |
| 2026-05-04 12:08 | 21.63286 | 56.94559 | 30845 ft | 531 kts | 94° |
| 2026-05-04 12:08 | 21.62768 | 57.02481 | 30861 ft | 531 kts | 94° |
| 2026-05-04 12:09 | 21.62250 | 57.10347 | 30859 ft | 531 kts | 94° |
| 2026-05-04 12:09 | 21.61724 | 57.18264 | 30851 ft | 531 kts | 94° |
| 2026-05-04 12:10 | 21.61194 | 57.26186 | 30853 ft | 531 kts | 94° |
| 2026-05-04 12:10 | 21.60661 | 57.34105 | 30855 ft | 531 kts | 94° |
| 2026-05-04 12:11 | 21.60123 | 57.42033 | 30851 ft | 531 kts | 94° |
| 2026-05-04 12:11 | 21.59583 | 57.49948 | 30847 ft | 531 kts | 94° |
| 2026-05-04 12:12 | 21.59040 | 57.57859 | 30847 ft | 531 kts | 94° |
| 2026-05-04 12:12 | 21.58404 | 57.65766 | 30836 ft | 531 kts | 98° |
| 2026-05-04 12:14 | 21.50215 | 57.96160 | 30826 ft | 531 kts | 107° |
| 2026-05-04 12:15 | 21.48078 | 58.03747 | 30810 ft | 531 kts | 107° |
| 2026-05-04 12:15 | 21.45936 | 58.11331 | 30822 ft | 531 kts | 107° |
| 2026-05-04 12:16 | 21.43788 | 58.18913 | 30814 ft | 531 kts | 107° |
| 2026-05-04 12:16 | 21.41633 | 58.26501 | 30812 ft | 530 kts | 107° |
| 2026-05-04 12:17 | 21.39494 | 58.34016 | 30810 ft | 530 kts | 107° |
| 2026-05-04 12:17 | 21.37339 | 58.41578 | 30810 ft | 530 kts | 107° |
| 2026-05-04 12:18 | 21.35179 | 58.49143 | 30810 ft | 530 kts | 107° |
| 2026-05-04 12:18 | 21.33018 | 58.56696 | 30810 ft | 530 kts | 107° |
| 2026-05-04 12:19 | 21.30853 | 58.64252 | 30813 ft | 529 kts | 107° |
| 2026-05-04 12:19 | 21.28697 | 58.71761 | 30813 ft | 529 kts | 107° |
| 2026-05-04 12:20 | 21.26882 | 58.79398 | 30812 ft | 529 kts | 98° |
| 2026-05-04 12:20 | 21.26284 | 58.87233 | 30818 ft | 527 kts | 89° |
| 2026-05-04 12:21 | 21.26257 | 58.95098 | 30826 ft | 528 kts | 89° |
| 2026-05-04 12:21 | 21.26210 | 59.02976 | 30819 ft | 529 kts | 89° |
| 2026-05-04 12:22 | 21.26116 | 59.10867 | 30819 ft | 530 kts | 89° |
| 2026-05-04 12:22 | 21.26005 | 59.18768 | 30823 ft | 530 kts | 89° |
| 2026-05-04 12:23 | 21.25892 | 59.26630 | 30824 ft | 530 kts | 89° |
| 2026-05-04 12:23 | 21.25779 | 59.34525 | 30826 ft | 530 kts | 89° |
| 2026-05-04 12:24 | 21.25662 | 59.42435 | 30830 ft | 530 kts | 89° |
| 2026-05-04 12:24 | 21.25542 | 59.50338 | 30829 ft | 530 kts | 89° |
| 2026-05-04 12:25 | 21.25417 | 59.58230 | 30830 ft | 529 kts | 89° |
| 2026-05-04 12:25 | 21.25289 | 59.66129 | 30831 ft | 529 kts | 89° |
| 2026-05-04 12:26 | 21.25160 | 59.73953 | 30835 ft | 529 kts | 89° |
| 2026-05-04 12:26 | 21.25026 | 59.81834 | 30834 ft | 528 kts | 89° |
| 2026-05-04 12:27 | 21.24888 | 59.89709 | 30838 ft | 528 kts | 89° |
| 2026-05-04 12:27 | 21.24746 | 59.97580 | 30838 ft | 528 kts | 89° |
| 2026-05-04 12:28 | 21.24601 | 60.05454 | 30843 ft | 528 kts | 89° |
| 2026-05-04 12:28 | 21.24453 | 60.13327 | 30844 ft | 528 kts | 89° |
| 2026-05-04 12:29 | 21.24299 | 60.21207 | 30843 ft | 529 kts | 89° |
| 2026-05-04 12:29 | 21.24136 | 60.29092 | 30841 ft | 529 kts | 89° |
| 2026-05-04 12:30 | 21.23970 | 60.36971 | 30844 ft | 529 kts | 89° |
| 2026-05-04 12:30 | 21.23801 | 60.44851 | 30843 ft | 529 kts | 89° |
| 2026-05-04 12:31 | 21.23629 | 60.52737 | 30842 ft | 529 kts | 89° |
| 2026-05-04 12:31 | 21.23454 | 60.60579 | 30843 ft | 529 kts | 89° |
| 2026-05-04 12:32 | 21.23183 | 60.72402 | 30847 ft | 529 kts | 89° |
| 2026-05-04 12:33 | 21.22997 | 60.80288 | 30847 ft | 529 kts | 89° |
| 2026-05-04 12:33 | 21.22808 | 60.88175 | 30849 ft | 529 kts | 89° |
| 2026-05-04 12:34 | 21.22616 | 60.96059 | 30847 ft | 529 kts | 89° |
| 2026-05-04 12:34 | 21.22420 | 61.03945 | 30849 ft | 529 kts | 89° |
| 2026-05-04 12:35 | 21.22221 | 61.11789 | 30850 ft | 529 kts | 89° |
| 2026-05-04 12:35 | 21.22017 | 61.19679 | 30850 ft | 529 kts | 89° |
| 2026-05-04 12:36 | 21.21810 | 61.27559 | 30849 ft | 529 kts | 89° |
| 2026-05-04 12:36 | 21.21599 | 61.35451 | 30851 ft | 529 kts | 89° |
| 2026-05-04 12:37 | 21.21386 | 61.43288 | 30852 ft | 529 kts | 90° |
| 2026-05-04 12:37 | 21.21169 | 61.51166 | 30855 ft | 529 kts | 89° |
| 2026-05-04 12:38 | 21.20897 | 61.59031 | 30840 ft | 529 kts | 94° |
| 2026-05-04 12:38 | 21.19312 | 61.66749 | 30863 ft | 532 kts | 108° |
| 2026-05-04 12:39 | 21.16228 | 61.73960 | 30865 ft | 533 kts | 117° |
| 2026-05-04 12:39 | 21.12719 | 61.80956 | 30854 ft | 533 kts | 117° |
| 2026-05-04 12:40 | 21.09223 | 61.87971 | 30855 ft | 534 kts | 117° |
| 2026-05-04 12:40 | 21.05791 | 61.94964 | 30860 ft | 534 kts | 117° |
| 2026-05-04 12:41 | 21.02351 | 62.02014 | 30861 ft | 534 kts | 117° |
| 2026-05-04 12:41 | 20.98910 | 62.09059 | 30861 ft | 534 kts | 117° |
| 2026-05-04 12:42 | 20.95464 | 62.16096 | 30862 ft | 534 kts | 117° |
| 2026-05-04 12:42 | 20.92013 | 62.23128 | 30862 ft | 533 kts | 117° |
| 2026-05-04 12:43 | 20.88556 | 62.30165 | 30866 ft | 533 kts | 117° |
| 2026-05-04 12:43 | 20.85125 | 62.37138 | 30868 ft | 533 kts | 117° |
| 2026-05-04 12:44 | 20.81671 | 62.44151 | 30868 ft | 533 kts | 117° |
| 2026-05-04 12:44 | 20.78215 | 62.51158 | 30870 ft | 533 kts | 117° |
| 2026-05-04 12:45 | 20.74756 | 62.58163 | 30869 ft | 533 kts | 117° |
| 2026-05-04 12:45 | 20.71294 | 62.65165 | 30872 ft | 532 kts | 117° |
| 2026-05-04 12:46 | 20.67851 | 62.72120 | 30874 ft | 532 kts | 117° |
| 2026-05-04 12:46 | 20.64384 | 62.79114 | 30874 ft | 532 kts | 117° |
| 2026-05-04 12:47 | 20.60917 | 62.86099 | 30878 ft | 532 kts | 117° |
| 2026-05-04 12:47 | 20.58035 | 62.91900 | 30878 ft | 532 kts | 117° |
| 2026-05-04 12:48 | 20.54003 | 63.00004 | 30879 ft | 532 kts | 117° |
| 2026-05-04 12:48 | 20.51092 | 63.05849 | 30881 ft | 531 kts | 117° |
| 2026-05-04 12:49 | 20.47619 | 63.12811 | 30883 ft | 531 kts | 117° |
| 2026-05-04 12:49 | 20.44170 | 63.19720 | 30883 ft | 531 kts | 117° |
| 2026-05-04 12:50 | 20.40689 | 63.26680 | 30883 ft | 531 kts | 117° |
| 2026-05-04 12:50 | 20.37212 | 63.33626 | 30885 ft | 531 kts | 117° |
| 2026-05-04 12:51 | 20.33729 | 63.40577 | 30885 ft | 531 kts | 117° |
| 2026-05-04 12:51 | 20.30244 | 63.47522 | 30886 ft | 531 kts | 117° |
| 2026-05-04 12:52 | 20.26754 | 63.54468 | 30887 ft | 531 kts | 117° |
| 2026-05-04 12:52 | 20.23267 | 63.61398 | 30890 ft | 531 kts | 117° |
| 2026-05-04 12:53 | 20.19802 | 63.68278 | 30887 ft | 530 kts | 117° |
| 2026-05-04 12:53 | 20.16310 | 63.75203 | 30890 ft | 530 kts | 117° |
| 2026-05-04 12:54 | 20.12819 | 63.82117 | 30894 ft | 530 kts | 117° |
| 2026-05-04 12:54 | 20.09326 | 63.89026 | 30892 ft | 530 kts | 117° |
| 2026-05-04 12:55 | 20.05833 | 63.95928 | 30895 ft | 530 kts | 117° |
| 2026-05-04 12:55 | 20.02338 | 64.02823 | 30895 ft | 530 kts | 117° |
| 2026-05-04 12:56 | 19.98838 | 64.09723 | 30889 ft | 530 kts | 117° |
| 2026-05-04 12:56 | 19.95357 | 64.16576 | 30888 ft | 529 kts | 117° |
| 2026-05-04 12:57 | 19.91854 | 64.23464 | 30893 ft | 529 kts | 117° |
| 2026-05-04 12:57 | 19.88353 | 64.30339 | 30897 ft | 529 kts | 117° |
| 2026-05-04 12:58 | 19.84846 | 64.37218 | 30895 ft | 529 kts | 117° |
| 2026-05-04 12:58 | 19.81338 | 64.44090 | 30897 ft | 529 kts | 117° |
| 2026-05-04 12:59 | 19.77830 | 64.50955 | 30897 ft | 529 kts | 117° |
| 2026-05-04 12:59 | 19.74320 | 64.57816 | 30894 ft | 528 kts | 117° |
| 2026-05-04 13:00 | 19.70809 | 64.64671 | 30893 ft | 528 kts | 117° |
| 2026-05-04 13:00 | 19.67297 | 64.71521 | 30897 ft | 528 kts | 117° |
| 2026-05-04 13:01 | 19.63781 | 64.78369 | 30903 ft | 528 kts | 117° |
| 2026-05-04 13:01 | 19.60283 | 64.85174 | 30899 ft | 528 kts | 117° |
| 2026-05-04 13:02 | 19.56766 | 64.92009 | 30896 ft | 528 kts | 117° |
| 2026-05-04 13:02 | 19.53244 | 64.98848 | 30900 ft | 528 kts | 117° |
| 2026-05-04 13:03 | 19.49759 | 65.05686 | 30900 ft | 527 kts | 116° |
| 2026-05-04 13:03 | 19.46325 | 65.12547 | 30898 ft | 527 kts | 116° |
| 2026-05-04 13:04 | 19.42894 | 65.19403 | 30898 ft | 526 kts | 116° |
| 2026-05-04 13:04 | 19.39455 | 65.26246 | 30900 ft | 526 kts | 116° |
| 2026-05-04 13:05 | 19.36033 | 65.33036 | 30898 ft | 526 kts | 116° |
| 2026-05-04 13:05 | 19.32576 | 65.39885 | 30901 ft | 526 kts | 116° |
| 2026-05-04 13:06 | 19.29128 | 65.46710 | 30903 ft | 526 kts | 116° |
| 2026-05-04 13:06 | 19.25673 | 65.53541 | 30905 ft | 526 kts | 116° |
| 2026-05-04 13:07 | 19.22221 | 65.60359 | 30909 ft | 525 kts | 116° |
| 2026-05-04 13:07 | 19.18769 | 65.67169 | 30908 ft | 525 kts | 116° |
| 2026-05-04 13:08 | 19.15313 | 65.73979 | 30905 ft | 525 kts | 117° |
| 2026-05-04 13:08 | 19.11881 | 65.80734 | 30904 ft | 525 kts | 117° |
| 2026-05-04 13:09 | 19.08427 | 65.87525 | 30905 ft | 524 kts | 117° |
| 2026-05-04 13:09 | 19.04971 | 65.94312 | 30921 ft | 526 kts | 117° |
| 2026-05-04 13:09 | 19.03232 | 65.97725 | 31071 ft | 528 kts | 117° |
| 2026-05-04 13:10 | 19.01496 | 66.01130 | 31405 ft | 525 kts | 117° |
| 2026-05-04 13:10 | 18.99766 | 66.04519 | 31762 ft | 522 kts | 117° |
| 2026-05-04 13:10 | 18.98045 | 66.07890 | 32088 ft | 520 kts | 117° |
| 2026-05-04 13:10 | 18.96330 | 66.11248 | 32365 ft | 519 kts | 117° |
| 2026-05-04 13:11 | 18.94615 | 66.14603 | 32619 ft | 519 kts | 117° |
| 2026-05-04 13:11 | 18.91180 | 66.21320 | 32764 ft | 520 kts | 117° |
| 2026-05-04 13:12 | 18.87746 | 66.28025 | 32777 ft | 518 kts | 117° |
| 2026-05-04 13:12 | 18.84319 | 66.34709 | 32784 ft | 517 kts | 117° |
| 2026-05-04 13:13 | 18.80899 | 66.41374 | 32788 ft | 516 kts | 117° |
| 2026-05-04 13:13 | 18.77474 | 66.48040 | 32789 ft | 516 kts | 117° |
| 2026-05-04 13:14 | 18.74049 | 66.54700 | 32793 ft | 516 kts | 117° |
| 2026-05-04 13:14 | 18.70644 | 66.61312 | 32793 ft | 516 kts | 117° |
| 2026-05-04 13:15 | 18.67208 | 66.67978 | 32792 ft | 517 kts | 117° |
| 2026-05-04 13:15 | 18.63770 | 66.74640 | 32792 ft | 517 kts | 117° |
| 2026-05-04 13:16 | 18.60332 | 66.81296 | 32792 ft | 517 kts | 117° |
| 2026-05-04 13:16 | 18.56892 | 66.87949 | 32792 ft | 517 kts | 117° |
| 2026-05-04 13:17 | 18.53448 | 66.94600 | 32791 ft | 516 kts | 117° |
| 2026-05-04 13:17 | 18.50003 | 67.01247 | 32791 ft | 516 kts | 117° |
| 2026-05-04 13:18 | 18.46560 | 67.07884 | 32793 ft | 516 kts | 117° |
| 2026-05-04 13:18 | 18.43112 | 67.14524 | 32794 ft | 516 kts | 117° |
| 2026-05-04 13:19 | 18.39666 | 67.21151 | 32795 ft | 516 kts | 117° |
| 2026-05-04 13:19 | 18.36243 | 67.27728 | 32798 ft | 516 kts | 118° |
| 2026-05-04 13:20 | 18.32793 | 67.34349 | 32796 ft | 515 kts | 118° |
| 2026-05-04 13:20 | 18.29345 | 67.40961 | 32798 ft | 515 kts | 118° |
| 2026-05-04 13:21 | 18.25889 | 67.47580 | 32797 ft | 515 kts | 118° |
| 2026-05-04 13:21 | 18.22439 | 67.54179 | 32800 ft | 514 kts | 118° |
| 2026-05-04 13:22 | 18.18990 | 67.60773 | 32798 ft | 514 kts | 118° |
| 2026-05-04 13:22 | 18.15542 | 67.67356 | 32802 ft | 514 kts | 118° |
| 2026-05-04 13:23 | 18.12093 | 67.73936 | 32801 ft | 514 kts | 118° |
| 2026-05-04 13:23 | 18.08664 | 67.80472 | 32803 ft | 514 kts | 118° |
| 2026-05-04 13:24 | 18.05245 | 67.87066 | 32803 ft | 514 kts | 117° |
| 2026-05-04 13:24 | 18.01902 | 67.93702 | 32804 ft | 514 kts | 117° |
| 2026-05-04 13:25 | 17.96888 | 68.03663 | 32806 ft | 514 kts | 117° |
| 2026-05-04 13:25 | 17.93535 | 68.10284 | 32806 ft | 514 kts | 117° |
| 2026-05-04 13:26 | 17.90172 | 68.16908 | 32804 ft | 514 kts | 117° |
| 2026-05-04 13:26 | 17.86808 | 68.23527 | 32807 ft | 514 kts | 117° |
| 2026-05-04 13:27 | 17.83443 | 68.30143 | 32804 ft | 513 kts | 117° |
| 2026-05-04 13:27 | 17.80097 | 68.36715 | 32809 ft | 513 kts | 117° |
| 2026-05-04 13:28 | 17.76710 | 68.43362 | 32805 ft | 513 kts | 117° |
| 2026-05-04 13:28 | 17.73342 | 68.49964 | 32807 ft | 513 kts | 117° |
| 2026-05-04 13:29 | 17.69973 | 68.56562 | 32811 ft | 513 kts | 117° |
| 2026-05-04 13:29 | 17.66629 | 68.63103 | 32807 ft | 513 kts | 117° |
| 2026-05-04 13:30 | 17.63254 | 68.69699 | 32814 ft | 513 kts | 117° |
| 2026-05-04 13:30 | 17.59882 | 68.76283 | 32815 ft | 513 kts | 117° |
| 2026-05-04 13:31 | 17.56505 | 68.82867 | 32812 ft | 513 kts | 117° |
| 2026-05-04 13:31 | 17.53129 | 68.89445 | 32816 ft | 513 kts | 117° |
| 2026-05-04 13:32 | 17.49741 | 68.96039 | 32817 ft | 513 kts | 117° |
| 2026-05-04 13:32 | 17.46928 | 69.01510 | 32813 ft | 513 kts | 117° |
| 2026-05-04 13:33 | 17.42989 | 69.09162 | 32814 ft | 513 kts | 117° |
| 2026-05-04 13:33 | 17.40150 | 69.14670 | 32816 ft | 513 kts | 117° |
| 2026-05-04 13:34 | 17.36780 | 69.21204 | 32821 ft | 513 kts | 117° |
| 2026-05-04 13:34 | 17.33385 | 69.27780 | 32824 ft | 513 kts | 117° |
| 2026-05-04 13:35 | 17.28291 | 69.37636 | 32821 ft | 513 kts | 117° |
| 2026-05-04 13:36 | 17.24894 | 69.44201 | 32824 ft | 513 kts | 117° |
| 2026-05-04 13:36 | 17.21497 | 69.50759 | 32827 ft | 513 kts | 117° |
| 2026-05-04 13:37 | 17.18101 | 69.57314 | 32823 ft | 512 kts | 117° |
| 2026-05-04 13:37 | 17.14716 | 69.63874 | 32825 ft | 512 kts | 117° |
| 2026-05-04 13:38 | 17.11337 | 69.70432 | 32823 ft | 512 kts | 117° |
| 2026-05-04 13:38 | 17.07956 | 69.76984 | 32822 ft | 512 kts | 117° |
| 2026-05-04 13:39 | 17.04571 | 69.83533 | 32829 ft | 512 kts | 117° |
| 2026-05-04 13:39 | 17.01205 | 69.90037 | 32828 ft | 512 kts | 117° |
| 2026-05-04 13:40 | 16.97813 | 69.96588 | 32827 ft | 512 kts | 117° |
| 2026-05-04 13:40 | 16.94422 | 70.03129 | 32829 ft | 512 kts | 117° |
| 2026-05-04 13:41 | 16.91031 | 70.09663 | 32829 ft | 512 kts | 117° |
| 2026-05-04 13:41 | 16.87638 | 70.16196 | 32834 ft | 512 kts | 117° |
| 2026-05-04 13:42 | 16.82547 | 70.25986 | 32835 ft | 512 kts | 117° |
| 2026-05-04 13:42 | 16.79148 | 70.32514 | 32828 ft | 512 kts | 117° |
| 2026-05-04 13:43 | 16.75746 | 70.39043 | 32828 ft | 511 kts | 117° |
| 2026-05-04 13:43 | 16.72366 | 70.45522 | 32831 ft | 511 kts | 117° |
| 2026-05-04 13:44 | 16.68962 | 70.52042 | 32831 ft | 511 kts | 117° |
| 2026-05-04 13:44 | 16.65557 | 70.58558 | 32829 ft | 511 kts | 117° |
| 2026-05-04 13:45 | 16.62151 | 70.65068 | 32831 ft | 511 kts | 117° |
| 2026-05-04 13:45 | 16.58740 | 70.71584 | 32835 ft | 511 kts | 117° |
| 2026-05-04 13:46 | 16.55334 | 70.78084 | 32833 ft | 511 kts | 118° |
| 2026-05-04 13:46 | 16.51949 | 70.84541 | 32834 ft | 511 kts | 117° |
| 2026-05-04 13:47 | 16.48570 | 70.91045 | 32832 ft | 510 kts | 117° |
| 2026-05-04 13:47 | 16.45194 | 70.97569 | 32833 ft | 510 kts | 117° |
| 2026-05-04 13:48 | 16.41824 | 71.04070 | 32834 ft | 510 kts | 117° |
| 2026-05-04 13:48 | 16.38445 | 71.10575 | 32830 ft | 510 kts | 117° |
| 2026-05-04 13:49 | 16.35069 | 71.17065 | 32835 ft | 510 kts | 118° |
| 2026-05-04 13:49 | 16.31702 | 71.23533 | 32834 ft | 510 kts | 118° |
| 2026-05-04 13:50 | 16.28321 | 71.30023 | 32833 ft | 510 kts | 118° |
| 2026-05-04 13:50 | 16.24936 | 71.36515 | 32832 ft | 510 kts | 118° |
| 2026-05-04 13:51 | 16.21552 | 71.42998 | 32836 ft | 510 kts | 118° |
| 2026-05-04 13:51 | 16.18163 | 71.49483 | 32833 ft | 510 kts | 118° |
| 2026-05-04 13:52 | 16.13098 | 71.59170 | 32834 ft | 510 kts | 118° |
| 2026-05-04 13:53 | 16.09705 | 71.65653 | 32830 ft | 510 kts | 118° |
| 2026-05-04 13:53 | 16.06372 | 71.72165 | 32832 ft | 510 kts | 117° |
| 2026-05-04 13:54 | 16.01417 | 71.81967 | 32830 ft | 510 kts | 117° |
| 2026-05-04 13:55 | 15.96466 | 71.91712 | 32833 ft | 510 kts | 117° |
| 2026-05-04 13:55 | 15.91481 | 72.01491 | 32833 ft | 510 kts | 117° |
| 2026-05-04 13:56 | 15.88152 | 72.08015 | 32835 ft | 510 kts | 117° |
| 2026-05-04 13:57 | 15.83158 | 72.17792 | 32835 ft | 511 kts | 118° |
| 2026-05-04 13:58 | 15.76493 | 72.30819 | 32833 ft | 511 kts | 118° |
| 2026-05-04 13:58 | 15.71492 | 72.40578 | 32837 ft | 511 kts | 118° |
| 2026-05-04 13:59 | 15.68175 | 72.47043 | 32832 ft | 510 kts | 118° |
| 2026-05-04 14:00 | 15.63168 | 72.56793 | 32826 ft | 510 kts | 118° |
| 2026-05-04 14:00 | 15.58156 | 72.66538 | 32835 ft | 510 kts | 118° |
| 2026-05-04 14:01 | 15.54818 | 72.73021 | 32835 ft | 510 kts | 118° |
| 2026-05-04 14:02 | 15.49800 | 72.82755 | 32830 ft | 510 kts | 118° |
| 2026-05-04 14:02 | 15.46457 | 72.89234 | 32830 ft | 509 kts | 118° |
| 2026-05-04 14:03 | 15.43112 | 72.95712 | 32827 ft | 509 kts | 118° |
| 2026-05-04 14:03 | 15.39790 | 73.02137 | 32828 ft | 509 kts | 118° |
| 2026-05-04 14:04 | 15.34766 | 73.11846 | 32826 ft | 509 kts | 118° |
| 2026-05-04 14:04 | 15.31416 | 73.18313 | 32828 ft | 509 kts | 118° |
| 2026-05-04 14:05 | 15.26388 | 73.28008 | 32825 ft | 509 kts | 118° |
| 2026-05-04 14:06 | 15.23027 | 73.34481 | 32822 ft | 509 kts | 118° |
| 2026-05-04 14:06 | 15.19671 | 73.40940 | 32825 ft | 509 kts | 119° |
| 2026-05-04 14:07 | 15.16334 | 73.47355 | 32820 ft | 509 kts | 119° |
| 2026-05-04 14:07 | 15.12973 | 73.53813 | 32826 ft | 510 kts | 119° |
| 2026-05-04 14:08 | 15.09607 | 73.60275 | 32829 ft | 510 kts | 119° |
| 2026-05-04 14:08 | 15.06241 | 73.66732 | 32829 ft | 510 kts | 119° |
| 2026-05-04 14:09 | 15.01185 | 73.76420 | 32831 ft | 510 kts | 119° |
| 2026-05-04 14:10 | 14.96139 | 73.86104 | 32837 ft | 510 kts | 119° |
| 2026-05-04 14:10 | 14.92782 | 73.92562 | 32835 ft | 510 kts | 119° |
| 2026-05-04 14:11 | 14.89415 | 73.99013 | 32839 ft | 510 kts | 119° |
| 2026-05-04 14:11 | 14.84338 | 74.08669 | 32841 ft | 510 kts | 119° |
| 2026-05-04 14:12 | 14.80952 | 74.15107 | 32844 ft | 510 kts | 119° |
| 2026-05-04 14:13 | 14.75895 | 74.24721 | 32851 ft | 510 kts | 119° |
| 2026-05-04 14:13 | 14.72504 | 74.31160 | 32846 ft | 510 kts | 119° |
| 2026-05-04 14:14 | 14.69112 | 74.37597 | 32857 ft | 510 kts | 119° |
| 2026-05-04 14:14 | 14.64018 | 74.47252 | 32865 ft | 510 kts | 119° |
| 2026-05-04 14:15 | 14.57226 | 74.60107 | 32871 ft | 510 kts | 119° |
| 2026-05-04 14:16 | 14.52130 | 74.69742 | 32884 ft | 509 kts | 119° |
| 2026-05-04 14:17 | 14.47066 | 74.79329 | 32894 ft | 509 kts | 119° |
| 2026-05-04 14:18 | 14.42080 | 74.89005 | 32897 ft | 509 kts | 119° |
| 2026-05-04 14:19 | 14.35422 | 75.01914 | 32904 ft | 509 kts | 119° |
| 2026-05-04 14:19 | 14.32087 | 75.08358 | 32905 ft | 510 kts | 119° |
| 2026-05-04 14:20 | 14.28741 | 75.14817 | 32908 ft | 510 kts | 119° |
| 2026-05-04 14:20 | 14.25400 | 75.21261 | 32907 ft | 510 kts | 119° |
| 2026-05-04 14:21 | 14.20948 | 75.29841 | 32909 ft | 510 kts | 119° |
| 2026-05-04 14:21 | 14.17603 | 75.36283 | 32908 ft | 510 kts | 119° |
| 2026-05-04 14:22 | 14.14252 | 75.42733 | 32906 ft | 510 kts | 119° |
| 2026-05-04 14:22 | 14.10922 | 75.49137 | 32905 ft | 510 kts | 119° |
| 2026-05-04 14:23 | 14.05886 | 75.58793 | 32901 ft | 510 kts | 119° |
| 2026-05-04 14:24 | 14.02514 | 75.65229 | 32907 ft | 510 kts | 120° |
| 2026-05-04 14:24 | 13.99148 | 75.71650 | 32903 ft | 509 kts | 120° |
| 2026-05-04 14:25 | 13.95778 | 75.78079 | 32905 ft | 509 kts | 120° |
| 2026-05-04 14:25 | 13.90728 | 75.87706 | 32910 ft | 509 kts | 120° |
| 2026-05-04 14:26 | 13.87356 | 75.94126 | 32903 ft | 510 kts | 120° |
| 2026-05-04 14:26 | 13.83983 | 76.00542 | 32912 ft | 510 kts | 120° |
| 2026-05-04 14:27 | 13.80627 | 76.06924 | 32908 ft | 510 kts | 120° |
| 2026-05-04 14:27 | 13.77248 | 76.13342 | 32910 ft | 510 kts | 120° |
| 2026-05-04 14:28 | 13.73867 | 76.19759 | 32906 ft | 510 kts | 120° |
| 2026-05-04 14:28 | 13.70485 | 76.26174 | 32905 ft | 510 kts | 120° |
| 2026-05-04 14:29 | 13.63711 | 76.39009 | 32904 ft | 511 kts | 120° |
| 2026-05-04 14:30 | 13.60321 | 76.45423 | 32906 ft | 510 kts | 120° |
| 2026-05-04 14:31 | 13.55233 | 76.55042 | 32907 ft | 510 kts | 120° |
| 2026-05-04 14:32 | 13.48446 | 76.67855 | 32913 ft | 510 kts | 120° |
| 2026-05-04 14:32 | 13.45078 | 76.74207 | 32915 ft | 509 kts | 120° |
| 2026-05-04 14:33 | 13.41688 | 76.80596 | 32918 ft | 509 kts | 120° |
| 2026-05-04 14:33 | 13.38297 | 76.86981 | 32921 ft | 509 kts | 120° |
| 2026-05-04 14:34 | 13.34901 | 76.93369 | 32922 ft | 509 kts | 120° |
| 2026-05-04 14:34 | 13.31510 | 76.99746 | 32924 ft | 509 kts | 120° |
| 2026-05-04 14:35 | 13.28117 | 77.06120 | 32936 ft | 509 kts | 120° |
| 2026-05-04 14:35 | 13.24722 | 77.12493 | 32930 ft | 509 kts | 120° |
| 2026-05-04 14:36 | 13.21323 | 77.18869 | 32939 ft | 508 kts | 120° |
| 2026-05-04 14:36 | 13.17928 | 77.25234 | 32944 ft | 508 kts | 120° |
| 2026-05-04 14:37 | 13.14531 | 77.31599 | 32949 ft | 508 kts | 120° |
| 2026-05-04 14:37 | 13.11158 | 77.37911 | 32955 ft | 508 kts | 120° |
| 2026-05-04 14:38 | 13.07762 | 77.44264 | 32963 ft | 507 kts | 120° |
| 2026-05-04 14:38 | 13.04365 | 77.50614 | 32970 ft | 507 kts | 120° |
| 2026-05-04 14:39 | 13.00966 | 77.56962 | 32967 ft | 507 kts | 120° |
| 2026-05-04 14:39 | 12.97573 | 77.63297 | 32966 ft | 506 kts | 120° |
| 2026-05-04 14:40 | 12.92762 | 77.72933 | 32966 ft | 506 kts | 115° |
| 2026-05-04 14:40 | 12.89859 | 77.79507 | 32970 ft | 506 kts | 115° |
| 2026-05-04 14:41 | 12.86976 | 77.86044 | 32970 ft | 506 kts | 115° |
| 2026-05-04 14:42 | 12.81113 | 77.99181 | 32960 ft | 506 kts | 115° |
| 2026-05-04 14:42 | 12.78173 | 78.05742 | 32953 ft | 507 kts | 115° |
| 2026-05-04 14:43 | 12.75230 | 78.12308 | 32948 ft | 507 kts | 116° |
| 2026-05-04 14:43 | 12.72287 | 78.18871 | 32934 ft | 507 kts | 116° |
| 2026-05-04 14:44 | 12.69361 | 78.25391 | 32928 ft | 507 kts | 116° |
| 2026-05-04 14:44 | 12.66415 | 78.31950 | 32918 ft | 507 kts | 116° |
| 2026-05-04 14:45 | 12.63463 | 78.38518 | 32907 ft | 507 kts | 116° |
| 2026-05-04 14:45 | 12.60513 | 78.45076 | 32901 ft | 507 kts | 116° |
| 2026-05-04 14:46 | 12.57565 | 78.51624 | 32894 ft | 506 kts | 116° |
| 2026-05-04 14:46 | 12.54619 | 78.58163 | 32887 ft | 506 kts | 116° |
| 2026-05-04 14:47 | 12.51670 | 78.64703 | 32880 ft | 506 kts | 116° |
| 2026-05-04 14:47 | 12.48723 | 78.71235 | 32879 ft | 505 kts | 116° |
| 2026-05-04 14:48 | 12.45792 | 78.77725 | 32869 ft | 505 kts | 116° |
| 2026-05-04 14:48 | 12.42844 | 78.84249 | 32863 ft | 504 kts | 116° |
| 2026-05-04 14:49 | 12.39900 | 78.90760 | 32865 ft | 504 kts | 116° |
| 2026-05-04 14:49 | 12.36952 | 78.97272 | 32847 ft | 504 kts | 116° |
| 2026-05-04 14:50 | 12.34009 | 79.03771 | 32845 ft | 503 kts | 116° |
| 2026-05-04 14:50 | 12.31065 | 79.10266 | 32829 ft | 503 kts | 116° |
| 2026-05-04 14:51 | 12.28123 | 79.16752 | 32825 ft | 502 kts | 116° |
| 2026-05-04 14:51 | 12.25182 | 79.23231 | 32816 ft | 502 kts | 116° |
| 2026-05-04 14:52 | 12.22243 | 79.29702 | 32811 ft | 501 kts | 116° |
| 2026-05-04 14:52 | 12.19325 | 79.36120 | 32804 ft | 500 kts | 116° |
| 2026-05-04 14:53 | 12.16391 | 79.42571 | 32797 ft | 499 kts | 116° |
| 2026-05-04 14:53 | 12.13464 | 79.49003 | 32790 ft | 498 kts | 116° |
| 2026-05-04 14:54 | 12.10542 | 79.55417 | 32784 ft | 497 kts | 117° |
| 2026-05-04 14:54 | 12.07633 | 79.61823 | 32781 ft | 497 kts | 116° |
| 2026-05-04 14:55 | 12.04820 | 79.68274 | 32782 ft | 497 kts | 116° |
| 2026-05-04 14:55 | 12.02035 | 79.74728 | 32774 ft | 496 kts | 116° |
| 2026-05-04 14:56 | 11.99237 | 79.81174 | 32784 ft | 496 kts | 116° |
| 2026-05-04 14:56 | 11.96427 | 79.87619 | 32799 ft | 496 kts | 116° |
| 2026-05-04 14:57 | 11.93634 | 79.94019 | 32807 ft | 497 kts | 116° |
| 2026-05-04 14:57 | 11.90818 | 80.00470 | 32817 ft | 497 kts | 116° |
| 2026-05-04 14:58 | 11.88001 | 80.06920 | 32833 ft | 498 kts | 116° |
| 2026-05-04 14:58 | 11.85651 | 80.12294 | 32835 ft | 498 kts | 116° |
| 2026-05-04 14:59 | 11.82324 | 80.19838 | 32839 ft | 498 kts | 116° |
| 2026-05-04 15:00 | 11.78038 | 80.29521 | 32834 ft | 499 kts | 116° |
| 2026-05-04 15:00 | 11.75200 | 80.35938 | 32837 ft | 500 kts | 117° |
| 2026-05-04 15:01 | 11.70909 | 80.45636 | 32848 ft | 500 kts | 116° |
| 2026-05-04 15:01 | 11.68046 | 80.52101 | 32845 ft | 500 kts | 116° |
| 2026-05-04 15:02 | 11.65178 | 80.58571 | 32846 ft | 500 kts | 116° |
| 2026-05-04 15:02 | 11.62311 | 80.65037 | 32847 ft | 500 kts | 117° |
| 2026-05-04 15:03 | 11.59447 | 80.71489 | 32849 ft | 499 kts | 117° |
| 2026-05-04 15:03 | 11.56579 | 80.77947 | 32849 ft | 499 kts | 117° |
| 2026-05-04 15:04 | 11.53716 | 80.84388 | 32851 ft | 499 kts | 117° |
| 2026-05-04 15:04 | 11.50851 | 80.90829 | 32853 ft | 498 kts | 117° |
| 2026-05-04 15:05 | 11.47986 | 80.97265 | 32854 ft | 498 kts | 117° |
| 2026-05-04 15:05 | 11.45119 | 81.03702 | 32856 ft | 498 kts | 117° |
| 2026-05-04 15:06 | 11.42740 | 81.09040 | 32855 ft | 498 kts | 117° |
| 2026-05-04 15:07 | 11.37973 | 81.19726 | 32858 ft | 498 kts | 117° |
| 2026-05-04 15:07 | 11.35590 | 81.25065 | 32857 ft | 498 kts | 117° |
| 2026-05-04 15:08 | 11.32719 | 81.31491 | 32860 ft | 498 kts | 117° |
| 2026-05-04 15:08 | 11.29852 | 81.37904 | 32860 ft | 498 kts | 117° |
| 2026-05-04 15:09 | 11.26982 | 81.44320 | 32855 ft | 498 kts | 117° |
| 2026-05-04 15:09 | 11.24107 | 81.50743 | 32860 ft | 498 kts | 117° |
| 2026-05-04 15:10 | 11.19790 | 81.60377 | 32870 ft | 498 kts | 117° |
| 2026-05-04 15:11 | 11.15491 | 81.69965 | 32864 ft | 498 kts | 116° |
| 2026-05-04 15:11 | 11.12610 | 81.76384 | 32867 ft | 498 kts | 116° |
| 2026-05-04 15:12 | 11.09723 | 81.82811 | 32867 ft | 498 kts | 116° |
| 2026-05-04 15:12 | 11.06839 | 81.89228 | 32864 ft | 498 kts | 116° |
| 2026-05-04 15:13 | 11.03952 | 81.95646 | 32866 ft | 498 kts | 116° |
| 2026-05-04 15:13 | 11.01067 | 82.02058 | 32867 ft | 498 kts | 116° |
| 2026-05-04 15:14 | 10.98178 | 82.08473 | 32867 ft | 498 kts | 116° |
| 2026-05-04 15:14 | 10.95291 | 82.14880 | 32877 ft | 498 kts | 116° |
| 2026-05-04 15:15 | 10.92421 | 82.21243 | 32873 ft | 498 kts | 116° |
| 2026-05-04 15:15 | 10.89532 | 82.27645 | 32874 ft | 497 kts | 116° |
| 2026-05-04 15:16 | 10.85205 | 82.37227 | 32874 ft | 496 kts | 116° |
| 2026-05-04 15:17 | 10.80886 | 82.46783 | 32874 ft | 495 kts | 116° |
| 2026-05-04 15:17 | 10.76565 | 82.56333 | 32881 ft | 495 kts | 116° |
| 2026-05-04 15:18 | 10.73709 | 82.62639 | 32877 ft | 494 kts | 116° |
| 2026-05-04 15:19 | 10.69392 | 82.72168 | 32877 ft | 494 kts | 116° |
| 2026-05-04 15:19 | 10.65078 | 82.81681 | 32885 ft | 494 kts | 116° |
| 2026-05-04 15:20 | 10.62202 | 82.88018 | 32886 ft | 493 kts | 116° |
| 2026-05-04 15:20 | 10.59333 | 82.94367 | 32882 ft | 493 kts | 116° |
| 2026-05-04 15:21 | 10.56470 | 83.00705 | 32886 ft | 494 kts | 116° |
| 2026-05-04 15:22 | 10.52185 | 83.10184 | 32882 ft | 494 kts | 116° |
| 2026-05-04 15:22 | 10.47871 | 83.19713 | 32880 ft | 495 kts | 116° |
| 2026-05-04 15:23 | 10.44987 | 83.26080 | 32896 ft | 496 kts | 116° |
| 2026-05-04 15:23 | 10.42098 | 83.32454 | 32895 ft | 496 kts | 116° |
| 2026-05-04 15:24 | 10.39201 | 83.38840 | 33176 ft | 498 kts | 116° |
| 2026-05-04 15:24 | 10.36315 | 83.45199 | 33894 ft | 493 kts | 116° |
| 2026-05-04 15:25 | 10.34883 | 83.48355 | 34227 ft | 490 kts | 116° |
| 2026-05-04 15:25 | 10.33458 | 83.51493 | 34539 ft | 488 kts | 116° |
| 2026-05-04 15:25 | 10.32040 | 83.54614 | 34789 ft | 487 kts | 116° |
| 2026-05-04 15:26 | 10.29193 | 83.60874 | 34866 ft | 488 kts | 116° |
| 2026-05-04 15:26 | 10.24949 | 83.70204 | 34893 ft | 485 kts | 116° |
| 2026-05-04 15:27 | 10.20711 | 83.79513 | 34893 ft | 484 kts | 116° |
| 2026-05-04 15:28 | 10.16465 | 83.88828 | 34887 ft | 484 kts | 116° |
| 2026-05-04 15:29 | 10.12212 | 83.98154 | 34888 ft | 486 kts | 116° |
| 2026-05-04 15:30 | 10.02229 | 84.20009 | 34890 ft | 489 kts | 116° |
| 2026-05-04 15:31 | 9.97952 | 84.29358 | 34891 ft | 488 kts | 116° |
| 2026-05-04 15:32 | 9.90800 | 84.44975 | 34888 ft | 487 kts | 116° |
| 2026-05-04 15:34 | 9.83659 | 84.60545 | 34893 ft | 486 kts | 116° |
| 2026-05-04 15:34 | 9.79398 | 84.69825 | 34894 ft | 486 kts | 116° |
| 2026-05-04 15:35 | 9.75114 | 84.79146 | 34893 ft | 486 kts | 116° |
| 2026-05-04 15:36 | 9.70824 | 84.88473 | 34898 ft | 486 kts | 116° |
| 2026-05-04 15:36 | 9.67962 | 84.94692 | 34895 ft | 487 kts | 116° |
| 2026-05-04 15:37 | 9.65115 | 85.00873 | 34893 ft | 487 kts | 116° |
| 2026-05-04 15:37 | 9.62251 | 85.07089 | 34892 ft | 487 kts | 116° |
| 2026-05-04 15:38 | 9.59385 | 85.13305 | 34893 ft | 487 kts | 116° |
| 2026-05-04 15:38 | 9.56514 | 85.19530 | 34894 ft | 487 kts | 116° |
| 2026-05-04 15:39 | 9.53641 | 85.25755 | 34892 ft | 487 kts | 116° |
| 2026-05-04 15:40 | 9.49331 | 85.35086 | 34897 ft | 487 kts | 116° |
| 2026-05-04 15:40 | 9.46456 | 85.41307 | 34896 ft | 487 kts | 116° |
| 2026-05-04 15:41 | 9.43582 | 85.47522 | 34897 ft | 487 kts | 116° |
| 2026-05-04 15:41 | 9.40704 | 85.53741 | 34895 ft | 487 kts | 116° |
| 2026-05-04 15:42 | 9.37847 | 85.59913 | 34891 ft | 487 kts | 116° |
| 2026-05-04 15:42 | 9.34975 | 85.66115 | 34893 ft | 486 kts | 116° |
| 2026-05-04 15:43 | 9.32101 | 85.72316 | 34892 ft | 486 kts | 116° |
| 2026-05-04 15:43 | 9.29230 | 85.78510 | 34892 ft | 485 kts | 116° |
| 2026-05-04 15:44 | 9.26364 | 85.84688 | 34896 ft | 485 kts | 116° |
| 2026-05-04 15:44 | 9.23526 | 85.90872 | 34895 ft | 484 kts | 115° |
| 2026-05-04 15:45 | 9.20768 | 85.97086 | 34893 ft | 484 kts | 115° |
| 2026-05-04 15:45 | 9.18040 | 86.03258 | 34895 ft | 483 kts | 115° |
| 2026-05-04 15:46 | 9.15283 | 86.09468 | 34895 ft | 483 kts | 115° |
| 2026-05-04 15:46 | 9.12520 | 86.15669 | 34896 ft | 483 kts | 115° |
| 2026-05-04 15:47 | 9.09751 | 86.21877 | 34898 ft | 483 kts | 115° |
| 2026-05-04 15:47 | 9.06985 | 86.28075 | 34896 ft | 483 kts | 115° |
| 2026-05-04 15:48 | 9.04231 | 86.34243 | 34894 ft | 484 kts | 115° |
| 2026-05-04 15:48 | 9.00070 | 86.43558 | 34897 ft | 485 kts | 115° |
| 2026-05-04 15:49 | 8.97289 | 86.49780 | 34898 ft | 486 kts | 115° |
| 2026-05-04 15:49 | 8.94500 | 86.56016 | 34896 ft | 486 kts | 115° |
| 2026-05-04 15:50 | 8.91708 | 86.62257 | 34899 ft | 487 kts | 115° |
| 2026-05-04 15:50 | 8.88908 | 86.68511 | 34900 ft | 487 kts | 115° |
| 2026-05-04 15:51 | 8.86108 | 86.74762 | 34897 ft | 488 kts | 115° |
| 2026-05-04 15:51 | 8.83306 | 86.81014 | 34901 ft | 488 kts | 115° |
| 2026-05-04 15:52 | 8.80518 | 86.87231 | 34899 ft | 489 kts | 115° |
| 2026-05-04 15:52 | 8.77706 | 86.93499 | 34903 ft | 489 kts | 115° |
| 2026-05-04 15:53 | 8.74894 | 86.99763 | 34899 ft | 490 kts | 115° |
| 2026-05-04 15:53 | 8.72072 | 87.06048 | 34902 ft | 490 kts | 115° |
| 2026-05-04 15:54 | 8.69248 | 87.12334 | 34902 ft | 491 kts | 115° |
| 2026-05-04 15:54 | 8.66425 | 87.18614 | 34903 ft | 491 kts | 115° |
| 2026-05-04 15:55 | 8.63618 | 87.24854 | 34903 ft | 491 kts | 115° |
| 2026-05-04 15:55 | 8.60793 | 87.31130 | 34904 ft | 491 kts | 115° |
| 2026-05-04 15:56 | 8.58441 | 87.36354 | 34904 ft | 491 kts | 115° |
| 2026-05-04 15:56 | 8.55614 | 87.42631 | 34902 ft | 491 kts | 115° |
| 2026-05-04 15:57 | 8.52785 | 87.48909 | 34904 ft | 491 kts | 115° |
| 2026-05-04 15:57 | 8.49947 | 87.55202 | 34905 ft | 491 kts | 115° |
| 2026-05-04 15:58 | 8.47116 | 87.61480 | 34906 ft | 491 kts | 115° |
| 2026-05-04 15:58 | 8.44283 | 87.67755 | 34906 ft | 491 kts | 115° |
| 2026-05-04 15:59 | 8.41447 | 87.74036 | 34910 ft | 491 kts | 115° |
| 2026-05-04 15:59 | 8.38615 | 87.80304 | 34907 ft | 490 kts | 115° |
| 2026-05-04 16:00 | 8.35784 | 87.86568 | 34904 ft | 490 kts | 115° |
| 2026-05-04 16:00 | 8.32974 | 87.92780 | 34909 ft | 490 kts | 115° |
| 2026-05-04 16:01 | 8.30142 | 87.99041 | 34914 ft | 489 kts | 115° |
| 2026-05-04 16:01 | 8.27309 | 88.05297 | 34908 ft | 489 kts | 115° |
| 2026-05-04 16:02 | 8.24479 | 88.11545 | 34908 ft | 489 kts | 115° |
| 2026-05-04 16:03 | 8.20229 | 88.20923 | 34913 ft | 489 kts | 115° |
| 2026-05-04 16:03 | 8.17397 | 88.27170 | 34914 ft | 489 kts | 115° |
| 2026-05-04 16:04 | 8.14581 | 88.33375 | 34913 ft | 489 kts | 115° |
| 2026-05-04 16:04 | 8.10327 | 88.42747 | 34913 ft | 490 kts | 115° |
| 2026-05-04 16:05 | 8.07487 | 88.48998 | 34913 ft | 490 kts | 115° |
| 2026-05-04 16:06 | 8.03221 | 88.58387 | 34914 ft | 491 kts | 115° |
| 2026-05-04 16:07 | 7.97521 | 88.70919 | 34913 ft | 492 kts | 115° |
| 2026-05-04 16:08 | 7.91811 | 88.83459 | 34909 ft | 492 kts | 115° |
| 2026-05-04 16:09 | 7.84671 | 88.99126 | 34913 ft | 493 kts | 115° |
| 2026-05-04 16:10 | 7.78941 | 89.11686 | 34913 ft | 493 kts | 115° |
| 2026-05-04 16:11 | 7.73208 | 89.24243 | 34914 ft | 493 kts | 115° |
| 2026-05-04 16:12 | 7.64683 | 89.43116 | 34915 ft | 493 kts | 114° |
| 2026-05-04 16:13 | 7.59093 | 89.55699 | 34918 ft | 493 kts | 114° |
| 2026-05-04 16:14 | 7.53468 | 89.68308 | 34915 ft | 493 kts | 114° |
| 2026-05-04 16:16 | 7.46437 | 89.84050 | 34920 ft | 493 kts | 114° |
| 2026-05-04 16:17 | 7.39387 | 89.99820 | 34921 ft | 493 kts | 114° |
| 2026-05-04 16:18 | 7.33760 | 90.12393 | 34919 ft | 494 kts | 114° |
| 2026-05-04 16:19 | 7.26699 | 90.28156 | 34918 ft | 493 kts | 114° |
| 2026-05-04 16:20 | 7.19643 | 90.43890 | 34918 ft | 492 kts | 114° |
| 2026-05-04 16:22 | 7.12614 | 90.59548 | 34919 ft | 491 kts | 114° |
| 2026-05-04 16:23 | 7.04177 | 90.78321 | 34918 ft | 489 kts | 114° |
| 2026-05-04 16:25 | 6.95760 | 90.97026 | 34920 ft | 488 kts | 114° |
| 2026-05-04 16:26 | 6.85972 | 91.18749 | 34919 ft | 487 kts | 114° |
| 2026-05-04 16:28 | 6.78970 | 91.34269 | 34921 ft | 487 kts | 114° |
| 2026-05-04 16:29 | 6.69180 | 91.55944 | 34920 ft | 486 kts | 114° |
| 2026-05-04 16:31 | 6.62176 | 91.71431 | 34923 ft | 486 kts | 114° |
| 2026-05-04 16:32 | 6.53793 | 91.89950 | 34917 ft | 486 kts | 114° |
| 2026-05-04 16:33 | 6.48186 | 92.02323 | 34919 ft | 486 kts | 114° |
| 2026-05-04 16:34 | 6.43983 | 92.11595 | 34916 ft | 485 kts | 114° |
| 2026-05-04 16:35 | 6.35575 | 92.30121 | 34917 ft | 486 kts | 114° |
| 2026-05-04 16:36 | 6.31363 | 92.39394 | 34912 ft | 486 kts | 114° |
| 2026-05-04 16:37 | 6.27165 | 92.48633 | 34916 ft | 487 kts | 114° |
| 2026-05-04 16:38 | 6.21530 | 92.61026 | 34914 ft | 487 kts | 114° |
| 2026-05-04 16:39 | 6.14481 | 92.76515 | 34919 ft | 487 kts | 114° |
| 2026-05-04 16:40 | 6.09326 | 92.87834 | 34914 ft | 486 kts | 114° |
| 2026-05-04 16:41 | 6.02299 | 93.03256 | 34918 ft | 485 kts | 114° |
| 2026-05-04 16:43 | 5.95351 | 93.18685 | 34918 ft | 485 kts | 113° |
| 2026-05-04 16:43 | 5.91224 | 93.27966 | 34921 ft | 485 kts | 113° |
| 2026-05-04 16:45 | 5.82955 | 93.46493 | 34922 ft | 485 kts | 114° |
| 2026-05-04 16:46 | 5.76045 | 93.61959 | 34920 ft | 485 kts | 114° |
| 2026-05-04 16:47 | 5.70515 | 93.74325 | 34918 ft | 484 kts | 114° |
| 2026-05-04 16:48 | 5.65010 | 93.86628 | 34922 ft | 485 kts | 113° |
| 2026-05-04 16:49 | 5.59470 | 93.99000 | 34921 ft | 487 kts | 114° |
| 2026-05-04 16:50 | 5.53907 | 94.11417 | 34921 ft | 487 kts | 114° |
| 2026-05-04 16:51 | 5.49748 | 94.20693 | 34920 ft | 486 kts | 114° |
| 2026-05-04 16:52 | 5.44198 | 94.33067 | 34919 ft | 485 kts | 114° |
| 2026-05-04 16:53 | 5.40047 | 94.42315 | 34917 ft | 484 kts | 114° |
| 2026-05-04 16:54 | 5.34509 | 94.54648 | 34920 ft | 484 kts | 114° |
| 2026-05-04 16:55 | 5.26196 | 94.73146 | 34921 ft | 487 kts | 114° |
| 2026-05-04 16:56 | 5.19219 | 94.88657 | 34922 ft | 488 kts | 114° |
| 2026-05-04 16:57 | 5.15027 | 94.97971 | 34923 ft | 488 kts | 114° |
| 2026-05-04 16:58 | 5.09443 | 95.10373 | 34921 ft | 487 kts | 114° |
| 2026-05-04 17:00 | 5.01102 | 95.28881 | 34919 ft | 485 kts | 114° |
| 2026-05-04 17:01 | 4.94152 | 95.44291 | 34942 ft | 484 kts | 114° |
| 2026-05-04 17:02 | 4.88601 | 95.56591 | 34939 ft | 484 kts | 114° |
| 2026-05-04 17:03 | 4.84584 | 95.65487 | 34945 ft | 484 kts | 114° |
| 2026-05-04 17:03 | 4.80413 | 95.74721 | 34944 ft | 485 kts | 114° |
| 2026-05-04 17:04 | 4.74842 | 95.87048 | 34954 ft | 485 kts | 114° |
| 2026-05-04 17:05 | 4.69276 | 95.99357 | 34967 ft | 484 kts | 114° |
| 2026-05-04 17:06 | 4.65102 | 96.08585 | 34971 ft | 484 kts | 114° |
| 2026-05-04 17:07 | 4.61397 | 96.16770 | 34968 ft | 484 kts | 114° |
| 2026-05-04 17:07 | 4.58161 | 96.23919 | 34975 ft | 484 kts | 114° |
| 2026-05-04 17:08 | 4.53987 | 96.33135 | 34982 ft | 484 kts | 114° |
| 2026-05-04 17:09 | 4.51200 | 96.39288 | 34981 ft | 484 kts | 114° |
| 2026-05-04 17:09 | 4.48411 | 96.45443 | 34986 ft | 485 kts | 114° |
| 2026-05-04 17:10 | 4.41428 | 96.60846 | 35005 ft | 485 kts | 114° |
| 2026-05-04 17:11 | 4.38653 | 96.66963 | 35017 ft | 485 kts | 114° |
| 2026-05-04 17:12 | 4.34469 | 96.76185 | 35025 ft | 484 kts | 114° |
| 2026-05-04 17:13 | 4.27491 | 96.91558 | 35037 ft | 484 kts | 114° |
| 2026-05-04 17:14 | 4.21926 | 97.03811 | 35029 ft | 485 kts | 114° |
| 2026-05-04 17:15 | 4.17731 | 97.13043 | 35034 ft | 485 kts | 114° |
| 2026-05-04 17:16 | 4.12125 | 97.25376 | 35036 ft | 486 kts | 114° |
| 2026-05-04 17:17 | 4.06518 | 97.37704 | 35035 ft | 486 kts | 114° |
| 2026-05-04 17:18 | 4.00922 | 97.50003 | 35026 ft | 487 kts | 114° |
| 2026-05-04 17:19 | 3.95304 | 97.62345 | 35018 ft | 487 kts | 114° |
| 2026-05-04 17:20 | 3.89679 | 97.74695 | 35006 ft | 487 kts | 114° |
| 2026-05-04 17:20 | 3.85461 | 97.83954 | 34987 ft | 487 kts | 114° |
| 2026-05-04 17:21 | 3.79854 | 97.96255 | 34966 ft | 487 kts | 114° |
| 2026-05-04 17:22 | 3.77024 | 98.02463 | 34963 ft | 487 kts | 114° |
| 2026-05-04 17:23 | 3.71417 | 98.14757 | 34937 ft | 487 kts | 114° |
| 2026-05-04 17:24 | 3.67200 | 98.23999 | 34926 ft | 486 kts | 114° |
| 2026-05-04 17:25 | 3.61578 | 98.36319 | 34920 ft | 486 kts | 114° |
| 2026-05-04 17:26 | 3.55959 | 98.48628 | 34921 ft | 486 kts | 114° |
| 2026-05-04 17:27 | 3.47685 | 98.63253 | 34928 ft | 488 kts | 130° |
| 2026-05-04 17:28 | 3.37739 | 98.72561 | 34929 ft | 490 kts | 137° |
| 2026-05-04 17:29 | 3.22667 | 98.86394 | 34937 ft | 490 kts | 136° |
| 2026-05-04 17:31 | 3.10167 | 98.97936 | 34936 ft | 490 kts | 136° |
| 2026-05-04 17:32 | 2.97661 | 99.09473 | 34938 ft | 489 kts | 136° |
| 2026-05-04 17:33 | 2.87674 | 99.18685 | 34945 ft | 488 kts | 136° |
| 2026-05-04 17:34 | 2.77727 | 99.27856 | 34946 ft | 487 kts | 136° |
| 2026-05-04 17:35 | 2.65260 | 99.39348 | 34943 ft | 487 kts | 136° |
| 2026-05-04 17:36 | 2.60275 | 99.43943 | 34940 ft | 487 kts | 136° |
| 2026-05-04 17:36 | 2.55299 | 99.48528 | 34940 ft | 486 kts | 136° |
| 2026-05-04 17:37 | 2.50350 | 99.53088 | 34939 ft | 486 kts | 136° |
| 2026-05-04 17:37 | 2.45368 | 99.57678 | 34936 ft | 486 kts | 136° |
| 2026-05-04 17:38 | 2.40391 | 99.62264 | 34933 ft | 486 kts | 136° |
| 2026-05-04 17:38 | 2.35407 | 99.66854 | 34926 ft | 486 kts | 136° |
| 2026-05-04 17:39 | 2.27940 | 99.73732 | 34922 ft | 486 kts | 136° |
| 2026-05-04 17:39 | 2.22963 | 99.78314 | 34919 ft | 486 kts | 136° |
| 2026-05-04 17:40 | 2.18829 | 99.82121 | 34919 ft | 486 kts | 136° |
| 2026-05-04 17:40 | 2.13050 | 99.87442 | 34914 ft | 486 kts | 136° |
| 2026-05-04 17:41 | 2.08916 | 99.91248 | 34908 ft | 486 kts | 136° |
| 2026-05-04 17:41 | 2.03946 | 99.95824 | 34907 ft | 486 kts | 136° |
| 2026-05-04 17:42 | 1.98975 | 100.00399 | 34905 ft | 486 kts | 136° |
| 2026-05-04 17:42 | 1.93997 | 100.04981 | 34902 ft | 486 kts | 136° |
| 2026-05-04 17:43 | 1.89022 | 100.09560 | 34902 ft | 486 kts | 136° |
| 2026-05-04 17:43 | 1.84035 | 100.14149 | 34897 ft | 487 kts | 136° |
| 2026-05-04 17:44 | 1.79053 | 100.18733 | 34900 ft | 486 kts | 136° |
| 2026-05-04 17:44 | 1.74071 | 100.23318 | 34899 ft | 486 kts | 136° |
| 2026-05-04 17:45 | 1.69088 | 100.27902 | 34898 ft | 486 kts | 136° |
| 2026-05-04 17:45 | 1.64140 | 100.32454 | 34895 ft | 486 kts | 136° |
| 2026-05-04 17:46 | 1.59161 | 100.37035 | 34896 ft | 486 kts | 136° |
| 2026-05-04 17:46 | 1.54189 | 100.41609 | 34889 ft | 486 kts | 136° |
| 2026-05-04 17:47 | 1.49208 | 100.46190 | 34892 ft | 486 kts | 136° |
| 2026-05-04 17:47 | 1.44227 | 100.50771 | 34892 ft | 486 kts | 136° |
| 2026-05-04 17:48 | 1.39250 | 100.55349 | 34892 ft | 486 kts | 136° |
| 2026-05-04 17:48 | 1.34273 | 100.59926 | 34890 ft | 486 kts | 136° |
| 2026-05-04 17:49 | 1.29294 | 100.64504 | 34891 ft | 486 kts | 136° |
| 2026-05-04 17:49 | 1.24310 | 100.69087 | 34889 ft | 486 kts | 136° |
| 2026-05-04 17:50 | 1.19363 | 100.73635 | 34882 ft | 486 kts | 136° |
| 2026-05-04 17:50 | 1.14381 | 100.78216 | 34885 ft | 486 kts | 136° |
| 2026-05-04 17:51 | 1.09397 | 100.82798 | 34884 ft | 487 kts | 136° |
| 2026-05-04 17:51 | 1.04413 | 100.87381 | 34886 ft | 487 kts | 136° |
| 2026-05-04 17:52 | 0.99429 | 100.91962 | 34880 ft | 487 kts | 136° |
| 2026-05-04 17:52 | 0.94442 | 100.96546 | 34878 ft | 487 kts | 136° |
| 2026-05-04 17:53 | 0.89443 | 101.01142 | 34880 ft | 487 kts | 136° |
| 2026-05-04 17:53 | 0.84449 | 101.05732 | 34878 ft | 488 kts | 136° |
| 2026-05-04 17:54 | 0.79486 | 101.10294 | 34877 ft | 488 kts | 136° |
| 2026-05-04 17:54 | 0.74493 | 101.14884 | 34877 ft | 488 kts | 136° |
| 2026-05-04 17:55 | 0.69498 | 101.19475 | 34878 ft | 488 kts | 136° |
| 2026-05-04 17:55 | 0.64505 | 101.24064 | 34877 ft | 488 kts | 136° |
| 2026-05-04 17:56 | 0.59510 | 101.28654 | 34880 ft | 488 kts | 136° |
| 2026-05-04 17:56 | 0.54513 | 101.33248 | 34882 ft | 488 kts | 136° |
| 2026-05-04 17:57 | 0.49516 | 101.37841 | 34884 ft | 488 kts | 136° |
| 2026-05-04 17:57 | 0.44517 | 101.42436 | 34883 ft | 488 kts | 136° |
| 2026-05-04 17:58 | 0.39561 | 101.47062 | 34887 ft | 487 kts | 135° |
| 2026-05-04 17:58 | 0.34698 | 101.51792 | 34881 ft | 487 kts | 135° |
| 2026-05-04 17:59 | 0.29853 | 101.56530 | 34882 ft | 488 kts | 135° |
| 2026-05-04 18:00 | 0.22584 | 101.63595 | 34873 ft | 488 kts | 135° |
| 2026-05-04 18:00 | 0.17712 | 101.68316 | 34872 ft | 488 kts | 135° |
| 2026-05-04 18:01 | 0.12838 | 101.73038 | 34883 ft | 488 kts | 135° |
| 2026-05-04 18:01 | 0.07965 | 101.77760 | 34880 ft | 488 kts | 135° |
| 2026-05-04 18:02 | 0.00649 | 101.84851 | 34880 ft | 488 kts | 135° |
| 2026-05-04 18:02 | -0.04203 | 101.89553 | 34880 ft | 488 kts | 135° |
| 2026-05-04 18:03 | -0.09106 | 101.94304 | 34885 ft | 488 kts | 135° |
| 2026-05-04 18:03 | -0.13947 | 101.98997 | 34883 ft | 488 kts | 135° |
| 2026-05-04 18:04 | -0.18816 | 102.03716 | 34880 ft | 488 kts | 135° |
| 2026-05-04 18:05 | -0.26112 | 102.10786 | 34882 ft | 487 kts | 135° |
| 2026-05-04 18:05 | -0.30979 | 102.15504 | 34885 ft | 487 kts | 135° |
| 2026-05-04 18:06 | -0.38270 | 102.22570 | 34884 ft | 486 kts | 135° |
| 2026-05-04 18:06 | -0.43125 | 102.27276 | 34888 ft | 486 kts | 135° |
| 2026-05-04 18:07 | -0.47977 | 102.31979 | 34891 ft | 486 kts | 135° |
| 2026-05-04 18:07 | -0.52831 | 102.36684 | 34890 ft | 486 kts | 135° |
| 2026-05-04 18:08 | -0.57682 | 102.41387 | 34890 ft | 486 kts | 135° |
| 2026-05-04 18:08 | -0.62533 | 102.46089 | 34893 ft | 486 kts | 135° |
| 2026-05-04 18:09 | -0.72231 | 102.55490 | 34899 ft | 487 kts | 135° |
| 2026-05-04 18:10 | -0.77097 | 102.60207 | 34902 ft | 487 kts | 135° |
| 2026-05-04 18:10 | -0.81967 | 102.64929 | 34901 ft | 487 kts | 135° |
| 2026-05-04 18:11 | -0.86838 | 102.69651 | 34902 ft | 488 kts | 135° |
| 2026-05-04 18:11 | -0.91677 | 102.74344 | 34906 ft | 488 kts | 135° |
| 2026-05-04 18:12 | -0.96552 | 102.79071 | 34905 ft | 488 kts | 135° |
| 2026-05-04 18:12 | -1.01424 | 102.83796 | 34912 ft | 488 kts | 135° |
| 2026-05-04 18:13 | -1.06303 | 102.88528 | 34907 ft | 488 kts | 135° |
| 2026-05-04 18:14 | -1.13615 | 102.95626 | 34906 ft | 489 kts | 135° |
| 2026-05-04 18:14 | -1.18483 | 103.00359 | 34910 ft | 488 kts | 135° |
| 2026-05-04 18:15 | -1.28219 | 103.09826 | 34906 ft | 488 kts | 135° |
| 2026-05-04 18:16 | -1.33085 | 103.14558 | 34911 ft | 488 kts | 135° |
| 2026-05-04 18:16 | -1.37947 | 103.19286 | 34908 ft | 487 kts | 135° |
| 2026-05-04 18:17 | -1.45233 | 103.26372 | 34908 ft | 487 kts | 135° |
| 2026-05-04 18:18 | -1.52512 | 103.33451 | 34908 ft | 486 kts | 135° |
| 2026-05-04 18:18 | -1.57324 | 103.38131 | 34903 ft | 486 kts | 135° |
| 2026-05-04 18:19 | -1.64599 | 103.45208 | 34910 ft | 485 kts | 135° |
| 2026-05-04 18:19 | -1.69436 | 103.49914 | 34908 ft | 485 kts | 135° |
| 2026-05-04 18:20 | -1.74283 | 103.54630 | 34909 ft | 485 kts | 135° |
| 2026-05-04 18:20 | -1.79096 | 103.59313 | 34906 ft | 486 kts | 135° |
| 2026-05-04 18:21 | -1.83936 | 103.64023 | 34904 ft | 486 kts | 135° |
| 2026-05-04 18:21 | -1.88785 | 103.68741 | 34903 ft | 487 kts | 135° |
| 2026-05-04 18:22 | -1.93639 | 103.73465 | 34908 ft | 487 kts | 135° |
| 2026-05-04 18:22 | -1.98504 | 103.78200 | 34903 ft | 488 kts | 135° |
| 2026-05-04 18:23 | -2.03367 | 103.82934 | 34905 ft | 488 kts | 135° |
| 2026-05-04 18:23 | -2.08234 | 103.87672 | 34903 ft | 488 kts | 135° |
| 2026-05-04 18:24 | -2.13107 | 103.92416 | 34900 ft | 489 kts | 135° |
| 2026-05-04 18:24 | -2.17977 | 103.97158 | 34903 ft | 489 kts | 135° |
| 2026-05-04 18:25 | -2.22821 | 104.01875 | 34900 ft | 489 kts | 135° |
| 2026-05-04 18:25 | -2.27699 | 104.06624 | 34898 ft | 490 kts | 135° |
| 2026-05-04 18:26 | -2.32581 | 104.11380 | 34899 ft | 490 kts | 135° |
| 2026-05-04 18:26 | -2.37463 | 104.16135 | 34899 ft | 490 kts | 135° |
| 2026-05-04 18:27 | -2.41558 | 104.20124 | 34902 ft | 490 kts | 135° |
| 2026-05-04 18:27 | -2.46410 | 104.24851 | 34904 ft | 490 kts | 135° |
| 2026-05-04 18:28 | -2.51295 | 104.29611 | 34897 ft | 490 kts | 135° |
| 2026-05-04 18:28 | -2.56180 | 104.34371 | 34895 ft | 490 kts | 135° |
| 2026-05-04 18:29 | -2.61065 | 104.39132 | 34898 ft | 490 kts | 135° |
| 2026-05-04 18:29 | -2.65949 | 104.43893 | 34898 ft | 490 kts | 135° |
| 2026-05-04 18:30 | -2.73281 | 104.51041 | 34890 ft | 490 kts | 135° |
| 2026-05-04 18:31 | -2.78132 | 104.55770 | 34889 ft | 490 kts | 135° |
| 2026-05-04 18:31 | -2.83015 | 104.60534 | 34885 ft | 490 kts | 135° |
| 2026-05-04 18:32 | -2.87882 | 104.65306 | 34886 ft | 490 kts | 133° |
| 2026-05-04 18:32 | -2.92348 | 104.70443 | 34893 ft | 489 kts | 129° |
| 2026-05-04 18:33 | -2.96712 | 104.75682 | 34886 ft | 489 kts | 129° |
| 2026-05-04 18:33 | -3.01081 | 104.80903 | 34887 ft | 489 kts | 129° |
| 2026-05-04 18:34 | -3.05465 | 104.86107 | 34891 ft | 489 kts | 130° |
| 2026-05-04 18:34 | -3.09861 | 104.91315 | 34891 ft | 489 kts | 130° |
| 2026-05-04 18:35 | -3.14251 | 104.96515 | 34890 ft | 489 kts | 130° |
| 2026-05-04 18:35 | -3.18640 | 105.01717 | 34892 ft | 489 kts | 130° |
| 2026-05-04 18:36 | -3.23023 | 105.06914 | 34890 ft | 488 kts | 129° |
| 2026-05-04 18:36 | -3.27372 | 105.12072 | 34891 ft | 488 kts | 129° |
| 2026-05-04 18:37 | -3.31740 | 105.17252 | 34889 ft | 487 kts | 129° |
| 2026-05-04 18:37 | -3.36110 | 105.22435 | 34886 ft | 486 kts | 129° |
| 2026-05-04 18:38 | -3.40469 | 105.27607 | 34886 ft | 485 kts | 129° |
| 2026-05-04 18:38 | -3.44818 | 105.32768 | 34885 ft | 484 kts | 129° |
| 2026-05-04 18:39 | -3.49159 | 105.37919 | 34880 ft | 482 kts | 129° |
| 2026-05-04 18:39 | -3.53383 | 105.42933 | 34770 ft | 466 kts | 129° |
| 2026-05-04 18:40 | -3.57482 | 105.47801 | 34669 ft | 450 kts | 129° |
| 2026-05-04 18:40 | -3.61452 | 105.52514 | 34565 ft | 435 kts | 129° |
| 2026-05-04 18:41 | -3.65320 | 105.57105 | 34521 ft | 424 kts | 129° |
| 2026-05-04 18:41 | -3.67214 | 105.59353 | 34369 ft | 421 kts | 129° |
| 2026-05-04 18:41 | -3.69096 | 105.61587 | 34132 ft | 419 kts | 129° |
| 2026-05-04 18:41 | -3.70970 | 105.63814 | 33907 ft | 417 kts | 129° |
| 2026-05-04 18:42 | -3.72833 | 105.66026 | 33657 ft | 415 kts | 129° |
| 2026-05-04 18:42 | -3.74692 | 105.68235 | 33410 ft | 414 kts | 129° |
| 2026-05-04 18:42 | -3.76544 | 105.70436 | 33155 ft | 412 kts | 129° |
| 2026-05-04 18:42 | -3.78387 | 105.72625 | 32895 ft | 411 kts | 129° |
| 2026-05-04 18:43 | -3.80228 | 105.74813 | 32657 ft | 410 kts | 129° |
| 2026-05-04 18:43 | -3.82058 | 105.76988 | 32421 ft | 408 kts | 129° |
| 2026-05-04 18:43 | -3.83887 | 105.79161 | 32170 ft | 407 kts | 129° |
| 2026-05-04 18:43 | -3.85711 | 105.81329 | 31923 ft | 406 kts | 129° |
| 2026-05-04 18:44 | -3.87503 | 105.83459 | 31692 ft | 404 kts | 129° |
| 2026-05-04 18:44 | -3.88726 | 105.84913 | 31526 ft | 403 kts | 129° |
| 2026-05-04 18:44 | -3.91115 | 105.87753 | 31210 ft | 401 kts | 129° |
| 2026-05-04 18:44 | -3.92910 | 105.89888 | 30986 ft | 400 kts | 129° |
| 2026-05-04 18:45 | -3.94701 | 105.92018 | 30747 ft | 399 kts | 129° |
| 2026-05-04 18:45 | -3.96484 | 105.94138 | 30525 ft | 397 kts | 129° |
| 2026-05-04 18:45 | -3.98267 | 105.96259 | 30252 ft | 397 kts | 129° |
| 2026-05-04 18:45 | -4.00060 | 105.98393 | 29762 ft | 405 kts | 129° |
| 2026-05-04 18:46 | -4.01892 | 106.00572 | 29169 ft | 413 kts | 129° |
| 2026-05-04 18:46 | -4.03765 | 106.02786 | 28642 ft | 419 kts | 131° |
| 2026-05-04 18:46 | -4.05918 | 106.04774 | 28165 ft | 424 kts | 141° |
| 2026-05-04 18:46 | -4.08282 | 106.06501 | 27774 ft | 426 kts | 143° |
| 2026-05-04 18:47 | -4.10726 | 106.08189 | 27477 ft | 426 kts | 144° |
| 2026-05-04 18:47 | -4.13150 | 106.09847 | 27440 ft | 419 kts | 144° |
| 2026-05-04 18:47 | -4.15563 | 106.11516 | 27035 ft | 423 kts | 143° |
| 2026-05-04 18:47 | -4.17991 | 106.13220 | 26536 ft | 428 kts | 143° |
| 2026-05-04 18:48 | -4.20429 | 106.14953 | 26154 ft | 430 kts | 143° |
| 2026-05-04 18:48 | -4.22864 | 106.16697 | 25874 ft | 430 kts | 143° |
| 2026-05-04 18:48 | -4.25289 | 106.18440 | 25609 ft | 429 kts | 143° |
| 2026-05-04 18:48 | -4.27714 | 106.20187 | 25300 ft | 429 kts | 143° |
| 2026-05-04 18:49 | -4.30142 | 106.21937 | 24971 ft | 430 kts | 143° |
| 2026-05-04 18:49 | -4.32573 | 106.23690 | 24655 ft | 431 kts | 143° |
| 2026-05-04 18:49 | -4.35006 | 106.25443 | 24336 ft | 432 kts | 143° |
| 2026-05-04 18:49 | -4.37447 | 106.27202 | 24027 ft | 432 kts | 143° |
| 2026-05-04 18:50 | -4.39892 | 106.28964 | 23719 ft | 432 kts | 143° |
| 2026-05-04 18:50 | -4.42338 | 106.30726 | 23387 ft | 433 kts | 142° |
| 2026-05-04 18:50 | -4.44758 | 106.32470 | 22996 ft | 434 kts | 143° |
| 2026-05-04 18:50 | -4.47207 | 106.34235 | 22598 ft | 434 kts | 143° |
| 2026-05-04 18:51 | -4.49670 | 106.36010 | 22200 ft | 435 kts | 143° |
| 2026-05-04 18:51 | -4.52126 | 106.37780 | 21900 ft | 435 kts | 143° |
| 2026-05-04 18:51 | -4.54581 | 106.39550 | 21882 ft | 435 kts | 143° |
| 2026-05-04 18:51 | -4.57040 | 106.41322 | 21873 ft | 436 kts | 143° |
| 2026-05-04 18:52 | -4.59477 | 106.43079 | 21857 ft | 436 kts | 143° |
| 2026-05-04 18:52 | -4.61946 | 106.44859 | 21873 ft | 436 kts | 143° |
| 2026-05-04 18:52 | -4.64415 | 106.46639 | 21853 ft | 436 kts | 143° |
| 2026-05-04 18:52 | -4.66878 | 106.48415 | 21874 ft | 436 kts | 143° |
| 2026-05-04 18:53 | -4.69342 | 106.50192 | 21870 ft | 436 kts | 143° |
| 2026-05-04 18:53 | -4.71805 | 106.51969 | 21852 ft | 436 kts | 143° |
| 2026-05-04 18:53 | -4.74273 | 106.53749 | 21869 ft | 436 kts | 143° |
| 2026-05-04 18:53 | -4.76733 | 106.55524 | 21865 ft | 436 kts | 143° |
| 2026-05-04 18:54 | -4.79189 | 106.57296 | 21844 ft | 432 kts | 143° |
| 2026-05-04 18:54 | -4.81603 | 106.59038 | 21844 ft | 423 kts | 143° |
| 2026-05-04 18:54 | -4.83979 | 106.60751 | 21849 ft | 419 kts | 143° |
| 2026-05-04 18:54 | -4.86347 | 106.62435 | 21862 ft | 416 kts | 146° |
| 2026-05-04 18:55 | -4.88892 | 106.63826 | 21684 ft | 415 kts | 153° |
| 2026-05-04 18:55 | -4.94126 | 106.66102 | 21068 ft | 406 kts | 155° |
| 2026-05-04 18:55 | -4.96681 | 106.67199 | 20650 ft | 402 kts | 155° |
| 2026-05-04 18:56 | -4.99238 | 106.68324 | 20210 ft | 399 kts | 154° |
| 2026-05-04 18:56 | -5.01762 | 106.69457 | 19770 ft | 397 kts | 154° |
| 2026-05-04 18:56 | -5.04274 | 106.70599 | 19318 ft | 395 kts | 154° |
| 2026-05-04 18:56 | -5.06768 | 106.71739 | 18863 ft | 393 kts | 154° |
| 2026-05-04 18:57 | -5.09255 | 106.72878 | 18421 ft | 392 kts | 154° |
| 2026-05-04 18:57 | -5.11731 | 106.74012 | 17931 ft | 391 kts | 154° |
| 2026-05-04 18:57 | -5.13772 | 106.74946 | 17534 ft | 389 kts | 154° |
| 2026-05-04 18:58 | -5.18791 | 106.77237 | 16738 ft | 379 kts | 154° |
| 2026-05-04 18:58 | -5.21175 | 106.78317 | 16478 ft | 372 kts | 154° |
| 2026-05-04 18:58 | -5.23498 | 106.79367 | 16337 ft | 361 kts | 154° |
| 2026-05-04 18:58 | -5.25760 | 106.80389 | 16144 ft | 352 kts | 154° |
| 2026-05-04 18:59 | -5.27978 | 106.81393 | 15842 ft | 347 kts | 154° |
| 2026-05-04 18:59 | -5.30173 | 106.82387 | 15467 ft | 345 kts | 154° |
| 2026-05-04 18:59 | -5.32354 | 106.83375 | 15108 ft | 343 kts | 154° |
| 2026-05-04 18:59 | -5.34521 | 106.84357 | 14742 ft | 341 kts | 154° |
| 2026-05-04 19:00 | -5.36682 | 106.85337 | 14299 ft | 342 kts | 154° |
| 2026-05-04 19:00 | -5.38857 | 106.86323 | 13846 ft | 343 kts | 154° |
| 2026-05-04 19:00 | -5.41039 | 106.87312 | 13349 ft | 345 kts | 154° |
| 2026-05-04 19:00 | -5.43233 | 106.88307 | 12802 ft | 345 kts | 154° |
| 2026-05-04 19:01 | -5.45366 | 106.89272 | 12232 ft | 335 kts | 154° |
| 2026-05-04 19:01 | -5.47508 | 106.90101 | 11702 ft | 330 kts | 166° |
| 2026-05-04 19:01 | -5.49803 | 106.90245 | 11189 ft | 332 kts | 180° |
| 2026-05-04 19:01 | -5.52089 | 106.90174 | 10670 ft | 322 kts | 180° |
| 2026-05-04 19:02 | -5.54282 | 106.90109 | 10140 ft | 309 kts | 179° |
| 2026-05-04 19:02 | -5.56400 | 106.90056 | 9625 ft | 304 kts | 179° |
| 2026-05-04 19:02 | -5.58529 | 106.90013 | 9108 ft | 308 kts | 179° |
| 2026-05-04 19:02 | -5.60679 | 106.89975 | 8735 ft | 308 kts | 179° |
| 2026-05-04 19:03 | -5.62814 | 106.89940 | 8425 ft | 305 kts | 179° |
| 2026-05-04 19:03 | -5.64928 | 106.89907 | 8104 ft | 303 kts | 179° |
| 2026-05-04 19:03 | -5.67034 | 106.89876 | 7792 ft | 301 kts | 179° |
| 2026-05-04 19:03 | -5.69103 | 106.89845 | 7427 ft | 292 kts | 179° |
| 2026-05-04 19:04 | -5.71078 | 106.89815 | 7024 ft | 283 kts | 179° |
| 2026-05-04 19:04 | -5.73024 | 106.89782 | 6626 ft | 277 kts | 179° |
| 2026-05-04 19:04 | -5.74963 | 106.89741 | 6210 ft | 272 kts | 179° |
| 2026-05-04 19:04 | -5.76804 | 106.89701 | 5796 ft | 265 kts | 179° |
| 2026-05-04 19:05 | -5.78631 | 106.89662 | 5377 ft | 259 kts | 179° |
| 2026-05-04 19:05 | -5.80412 | 106.89624 | 4962 ft | 255 kts | 179° |
| 2026-05-04 19:05 | -5.82195 | 106.89587 | 4588 ft | 258 kts | 179° |
| 2026-05-04 19:05 | -5.83994 | 106.89549 | 4221 ft | 259 kts | 179° |
| 2026-05-04 19:06 | -5.85780 | 106.89511 | 3957 ft | 255 kts | 179° |
| 2026-05-04 19:06 | -5.87554 | 106.89474 | 3602 ft | 255 kts | 179° |
| 2026-05-04 19:06 | -5.89284 | 106.89437 | 3212 ft | 242 kts | 179° |
| 2026-05-04 19:06 | -5.90917 | 106.89401 | 3064 ft | 226 kts | 179° |
| 2026-05-04 19:07 | -5.92441 | 106.89368 | 2984 ft | 212 kts | 178° |
| 2026-05-04 19:07 | -5.93889 | 106.89338 | 2988 ft | 205 kts | 179° |
| 2026-05-04 19:07 | -5.95319 | 106.89307 | 2986 ft | 206 kts | 180° |
| 2026-05-04 19:07 | -5.96653 | 106.88845 | 2975 ft | 207 kts | 216° |
| 2026-05-04 19:08 | -5.97751 | 106.87924 | 3005 ft | 206 kts | 217° |
| 2026-05-04 19:08 | -5.98846 | 106.87024 | 2752 ft | 206 kts | 217° |
| 2026-05-04 19:08 | -5.99933 | 106.86132 | 2506 ft | 195 kts | 217° |
| 2026-05-04 19:08 | -6.00938 | 106.85304 | 2245 ft | 183 kts | 217° |
| 2026-05-04 19:09 | -6.01896 | 106.84516 | 2082 ft | 177 kts | 217° |
| 2026-05-04 19:09 | -6.02862 | 106.83722 | 2070 ft | 181 kts | 217° |
| 2026-05-04 19:09 | -6.03831 | 106.82924 | 2044 ft | 180 kts | 217° |
| 2026-05-04 19:09 | -6.04688 | 106.82019 | 1984 ft | 179 kts | 239° |
| 2026-05-04 19:10 | -6.05256 | 106.80903 | 1988 ft | 177 kts | 243° |
| 2026-05-04 19:10 | -6.05750 | 106.79817 | 1948 ft | 165 kts | 246° |
| 2026-05-04 19:10 | -6.06182 | 106.78770 | 1971 ft | 161 kts | 247° |
| 2026-05-04 19:10 | -6.06605 | 106.77717 | 1978 ft | 163 kts | 247° |
| 2026-05-04 19:11 | -6.07024 | 106.76660 | 1970 ft | 162 kts | 247° |
| 2026-05-04 19:11 | -6.07449 | 106.75591 | 1768 ft | 166 kts | 247° |
| 2026-05-04 19:11 | -6.07868 | 106.74534 | 1570 ft | 160 kts | 247° |
| 2026-05-04 19:11 | -6.08273 | 106.73511 | 1368 ft | 155 kts | 247° |
| 2026-05-04 19:12 | -6.08672 | 106.72508 | 1162 ft | 155 kts | 247° |
| 2026-05-04 19:12 | -6.09454 | 106.70535 | 786 ft | 152 kts | 247° |
| 2026-05-04 19:12 | -6.09845 | 106.69551 | 617 ft | 152 kts | 247° |
| 2026-05-04 19:13 | -6.10234 | 106.68569 | 404 ft | 150 kts | 248° |
| 2026-05-04 19:13 | -6.10619 | 106.67596 | 199 ft | 149 kts | 247° |
| 2026-05-04 19:13 | -6.10992 | 106.66658 | 45 ft | 137 kts | 248° |
| 2026-05-04 19:13 | -6.11303 | 106.65883 | 45 ft | 95 kts | 248° |
| 2026-05-04 19:14 | -6.11484 | 106.65430 | 43 ft | 57 kts | 248° |
| 2026-05-04 19:14 | -6.11596 | 106.65153 | 46 ft | 26 kts | 246° |
| 2026-05-04 19:14 | -6.11708 | 106.65024 | 47 ft | 17 kts | 218° |
| 2026-05-04 19:14 | -6.11789 | 106.64978 | 45 ft | 11 kts | 189° |
| 2026-05-04 19:15 | -6.11834 | 106.65022 | 44 ft | 10 kts | 90° |
| 2026-05-04 19:15 | -6.11813 | 106.65091 | 44 ft | 10 kts | 69° |
| 2026-05-04 19:15 | -6.11788 | 106.65159 | 44 ft | 10 kts | 69° |
| 2026-05-04 19:15 | -6.11761 | 106.65227 | 44 ft | 10 kts | 68° |
| 2026-05-04 19:16 | -6.11734 | 106.65295 | 44 ft | 10 kts | 68° |
| 2026-05-04 19:16 | -6.11706 | 106.65363 | 44 ft | 11 kts | 68° |
| 2026-05-04 19:16 | -6.11675 | 106.65439 | 43 ft | 12 kts | 68° |
| 2026-05-04 19:16 | -6.11645 | 106.65515 | 43 ft | 12 kts | 68° |
| 2026-05-04 19:17 | -6.11614 | 106.65593 | 43 ft | 12 kts | 69° |
| 2026-05-04 19:17 | -6.11585 | 106.65668 | 43 ft | 12 kts | 68° |
| 2026-05-04 19:17 | -6.11552 | 106.65749 | 43 ft | 13 kts | 68° |
| 2026-05-04 19:17 | -6.11519 | 106.65830 | 43 ft | 13 kts | 69° |
| 2026-05-04 19:18 | -6.11543 | 106.65907 | 43 ft | 13 kts | 141° |
| 2026-05-04 19:18 | -6.11619 | 106.65953 | 43 ft | 13 kts | 152° |
| 2026-05-04 19:18 | -6.11701 | 106.65985 | 43 ft | 13 kts | 160° |
| 2026-05-04 19:18 | -6.11782 | 106.66017 | 43 ft | 12 kts | 152° |
| 2026-05-04 19:19 | -6.11792 | 106.66024 | 43 ft | 3 kts | 139° |
| 2026-05-04 19:19 | -6.11802 | 106.66054 | 43 ft | 5 kts | 92° |
| 2026-05-04 19:19 | -6.11794 | 106.66089 | 43 ft | 5 kts | 71° |
| 2026-05-04 19:19 | -6.11801 | 106.66129 | 43 ft | 8 kts | 130° |
| 2026-05-04 19:20 | -6.11819 | 106.66138 | 43 ft | 3 kts | 158° |
| 2026-05-04 19:20 | -6.11837 | 106.66145 | 43 ft | 3 kts | 159° |
| 2026-05-04 19:20 | -6.11858 | 106.66153 | 43 ft | 3 kts | 158° |
| 2026-05-04 19:20 | -6.11870 | 106.66158 | 43 ft | 0 kts | 158° |
| 2026-05-04 20:33 | -6.11865 | 106.66156 | 70 ft | 0 kts | 159° |
| 2026-05-04 20:36 | -6.11874 | 106.66159 | 43 ft | 0 kts | 159° |
| 2026-05-04 20:37 | -6.11865 | 106.66156 | 70 ft | 0 kts | 159° |